Milton, Florida
Current Conditions -  °F | °C
As of 12:56 PM on Friday 31 Oct 2014 (Local Time) from KNDZ Reporting Station
Few Clouds Few Clouds  
Wind Chill: 74°   Ceiling: Unl
Heat Index: 74°   Visibility: 10mi
Dew Point: 45°   Wind: 8mph
Humidity: 35%   Direction: 300°WNW
Pressure: 29.95"   Gusts: NA
Location:  30.63°N, 87.04°W
Report Text: KNDZ 311756Z 30007KT 10SM FEW016 23/07 A2995 RMK AO2 SLP130 FU FEW016 FU DSNT E-SE T02330072 10239 20056 58020 $
Loading
Personal Weather Stations






























Interactive Weather Map
Tropical Storm Tracking
New forecast layout! Learn more

10-Day Weather Forecast

Advertisements
Track Severe Weather on mobile